createdAt,value
2023-03-23T15:58:20.643Z,69.13
2023-03-23T16:00:50.230Z,68.51
2023-03-23T16:03:22.091Z,67.96
2023-03-23T16:05:51.161Z,68.00
2023-03-23T16:08:18.621Z,67.76
2023-03-23T16:10:46.374Z,68.19
2023-03-23T16:13:13.850Z,68.55
2023-03-23T16:15:41.732Z,68.01
2023-03-23T16:18:18.153Z,68.63
2023-03-23T16:20:46.076Z,68.33
2023-03-23T16:23:15.205Z,68.25
2023-03-23T16:25:42.836Z,68.03
2023-03-23T16:28:12.777Z,68.31
2023-03-23T16:30:41.208Z,68.18
2023-03-23T16:33:08.840Z,68.70
2023-03-23T16:35:37.122Z,68.48
2023-03-23T16:38:07.392Z,69.02
2023-03-23T16:40:38.194Z,68.92
2023-03-23T16:43:08.464Z,68.82
2023-03-23T16:45:37.835Z,69.05
2023-03-23T16:48:06.224Z,69.32
2023-03-23T16:50:33.917Z,69.62
2023-03-23T16:53:01.789Z,69.72
2023-03-23T16:55:31.284Z,68.96
2023-03-23T16:58:15.354Z,69.05
2023-03-23T17:00:46.309Z,68.91
2023-03-23T17:03:16.100Z,69.23
2023-03-23T17:05:44.876Z,69.35
2023-03-23T17:08:16.122Z,69.12
2023-03-23T17:10:53.868Z,69.51
2023-03-23T17:13:22.749Z,69.42
2023-03-23T17:15:54.024Z,69.66
2023-03-23T17:18:21.570Z,68.92
2023-03-23T17:20:49.101Z,69.62
2023-03-23T17:23:17.077Z,69.18
2023-03-23T17:25:45.468Z,69.15
2023-03-23T17:28:13.200Z,69.72
2023-03-23T17:30:43.231Z,69.96
2023-03-23T17:33:11.278Z,69.09
2023-03-23T17:35:38.936Z,69.16
2023-03-23T17:38:06.347Z,69.65
2023-03-23T17:40:33.860Z,69.24
2023-03-23T17:43:01.346Z,69.28
2023-03-23T17:45:28.888Z,68.66
2023-03-23T17:47:57.801Z,69.00
2023-03-23T17:50:25.506Z,69.25
2023-03-23T17:52:53.034Z,68.62
2023-03-23T17:55:20.613Z,68.56
2023-03-23T17:57:48.074Z,68.87
2023-03-23T18:00:16.321Z,68.41
2023-03-23T18:02:44.052Z,67.70
2023-03-23T18:05:13.063Z,67.58
2023-03-23T18:07:40.636Z,67.31
2023-03-23T18:10:12.412Z,66.94
2023-03-23T18:12:40.288Z,66.96
2023-03-23T18:15:08.871Z,66.59
2023-03-23T18:17:36.435Z,66.17
2023-03-23T18:20:04.127Z,65.77
2023-03-23T18:22:32.998Z,66.04
2023-03-23T18:25:02.497Z,65.42
2023-03-23T18:27:29.893Z,65.64
2023-03-23T18:29:57.365Z,65.38
2023-03-23T18:32:24.828Z,65.19
2023-03-23T18:34:52.482Z,64.92
2023-03-23T18:37:21.003Z,64.57
2023-03-23T18:39:49.764Z,64.84
2023-03-23T18:42:17.211Z,65.13
2023-03-23T18:44:44.679Z,64.32
2023-03-23T18:47:12.305Z,64.37
2023-03-23T18:49:39.911Z,64.24
2023-03-23T18:52:07.379Z,64.35
2023-03-23T18:54:35.009Z,64.31
2023-03-23T18:57:04.215Z,64.00
2023-03-23T18:59:33.748Z,64.26
2023-03-23T19:02:01.559Z,64.32
2023-03-23T19:04:31.478Z,63.93
2023-03-23T19:06:59.022Z,63.86
2023-03-23T19:09:27.385Z,64.01
2023-03-23T19:11:54.898Z,64.10
2023-03-23T19:14:23.734Z,64.00
2023-03-23T19:16:52.174Z,63.19
2023-03-23T19:19:20.496Z,63.71
2023-03-23T19:21:48.193Z,63.84
2023-03-23T19:24:16.755Z,63.25
2023-03-23T19:26:46.470Z,62.80
2023-03-23T19:31:49.358Z,63.05
2023-03-23T19:34:17.909Z,63.50
2023-03-23T19:36:54.167Z,63.29
2023-03-23T19:39:23.646Z,63.00
2023-03-23T19:41:51.824Z,63.20
2023-03-23T19:44:19.264Z,62.95
2023-03-23T19:46:47.834Z,62.89
2023-03-23T19:49:16.795Z,62.91
2023-03-23T19:51:44.420Z,62.62
2023-03-23T19:54:13.093Z,62.57
2023-03-23T19:56:41.314Z,62.98
2023-03-23T19:59:10.536Z,63.14
2023-03-23T20:01:39.248Z,63.49
2023-03-23T20:04:07.111Z,63.74
2023-03-23T20:06:37.658Z,63.93
2023-03-23T20:09:06.413Z,62.91
2023-03-23T20:11:34.597Z,63.42
2023-03-23T20:14:02.178Z,63.19
2023-03-23T20:16:29.628Z,64.16
2023-03-23T20:19:00.266Z,63.78
2023-03-23T20:21:28.234Z,63.70
2023-03-23T20:23:58.773Z,63.00
2023-03-23T20:26:28.815Z,63.34
2023-03-23T20:28:56.846Z,63.06
2023-03-23T20:31:26.771Z,64.36
2023-03-23T20:34:02.091Z,63.89
2023-03-23T20:36:34.583Z,64.37
2023-03-23T20:39:06.088Z,63.77
2023-03-23T20:41:35.741Z,63.50
2023-03-23T20:44:03.508Z,63.93
2023-03-23T20:46:31.089Z,64.19
2023-03-23T20:48:58.577Z,64.27
2023-03-23T20:51:26.102Z,64.30
2023-03-23T20:53:54.627Z,64.41
2023-03-23T20:56:24.375Z,64.70
2023-03-23T20:58:52.163Z,64.12
2023-03-23T21:01:21.431Z,64.21
2023-03-23T21:03:51.966Z,64.29
2023-03-23T21:06:20.086Z,64.78
2023-03-23T21:08:47.974Z,64.00
2023-03-23T21:11:19.252Z,64.91
2023-03-23T21:13:49.687Z,64.49
2023-03-23T21:16:18.063Z,64.78
2023-03-23T21:18:46.151Z,64.78
2023-03-23T21:21:14.800Z,64.01
2023-03-23T21:23:46.688Z,63.95
2023-03-23T21:26:16.518Z,64.09
2023-03-23T21:28:44.243Z,64.36
2023-03-23T21:31:15.148Z,64.25
2023-03-23T21:33:42.592Z,64.52
2023-03-23T21:36:10.552Z,64.68
2023-03-23T21:38:38.284Z,65.20
2023-03-23T21:41:09.941Z,64.78
2023-03-23T21:43:38.091Z,65.50
2023-03-23T21:46:08.686Z,65.49
2023-03-23T21:48:41.261Z,65.85
2023-03-23T21:51:10.413Z,66.55
2023-03-23T21:53:37.922Z,66.38
2023-03-23T21:56:07.650Z,66.59
2023-03-23T21:58:35.447Z,67.71
2023-03-23T22:01:02.935Z,67.26
2023-03-23T22:03:32.718Z,67.41
2023-03-23T22:06:11.519Z,67.24
2023-03-23T22:08:41.030Z,68.55
2023-03-23T22:11:11.523Z,69.79
2023-03-23T22:13:40.591Z,69.56
2023-03-23T22:16:13.134Z,69.91
2023-03-23T22:18:43.135Z,70.86
2023-03-23T22:21:13.116Z,69.97
2023-03-23T22:23:41.062Z,71.08
2023-03-23T22:26:09.961Z,70.71
2023-03-23T22:28:37.983Z,71.37
2023-03-23T22:31:09.713Z,71.77
2023-03-23T22:33:38.461Z,71.52
2023-03-23T22:36:07.124Z,71.96
2023-03-23T22:38:37.826Z,73.61
2023-03-23T22:41:07.217Z,72.92
2023-03-23T22:43:35.577Z,73.46
2023-03-23T22:46:03.474Z,74.18
2023-03-23T22:48:31.470Z,73.63
2023-03-23T22:50:59.410Z,73.40
2023-03-23T22:53:27.133Z,74.10
2023-03-23T22:55:57.934Z,73.72
2023-03-23T22:58:26.533Z,73.34
2023-03-23T23:00:57.879Z,74.02
2023-03-23T23:03:26.570Z,74.29
2023-03-23T23:05:55.499Z,74.24
2023-03-23T23:08:23.862Z,75.24
2023-03-23T23:10:53.405Z,74.34
2023-03-23T23:13:23.368Z,74.97
2023-03-23T23:15:53.893Z,76.45
2023-03-23T23:18:21.812Z,75.84
2023-03-23T23:20:50.167Z,76.05
2023-03-23T23:23:17.844Z,76.46
2023-03-23T23:25:45.756Z,76.33
2023-03-23T23:28:14.293Z,76.71
2023-03-23T23:30:43.965Z,76.76
2023-03-23T23:33:11.692Z,78.05
2023-03-23T23:35:40.004Z,77.99
2023-03-23T23:38:10.472Z,76.83
2023-03-23T23:40:38.139Z,77.21
2023-03-23T23:43:06.038Z,77.01
2023-03-23T23:45:34.022Z,77.02
2023-03-23T23:48:03.485Z,76.00
2023-03-23T23:50:31.207Z,76.86
2023-03-23T23:53:00.088Z,77.22
2023-03-23T23:55:28.607Z,76.80
2023-03-23T23:57:56.687Z,76.76
